createdAt,value
2023-03-28T00:01:18.864Z,96.10
2023-03-28T00:03:47.313Z,95.87
2023-03-28T00:06:18.932Z,95.90
2023-03-28T00:08:48.182Z,95.92
2023-03-28T00:11:20.541Z,96.12
2023-03-28T00:13:50.046Z,96.38
2023-03-28T00:16:18.918Z,96.27
2023-03-28T00:18:47.856Z,96.41
2023-03-28T00:21:23.843Z,96.30
2023-03-28T00:23:53.905Z,96.39
2023-03-28T00:26:26.739Z,96.19
2023-03-28T00:28:56.181Z,96.18
2023-03-28T00:31:26.084Z,96.63
2023-03-28T00:33:54.927Z,96.49
2023-03-28T00:36:26.857Z,96.46
2023-03-28T00:38:55.612Z,96.47
2023-03-28T00:41:26.784Z,96.11
2023-03-28T00:43:56.476Z,96.61
2023-03-28T00:46:27.715Z,96.59
2023-03-28T00:49:00.670Z,96.72
2023-03-28T00:51:36.697Z,96.68
2023-03-28T00:54:06.017Z,97.07
2023-03-28T00:56:39.398Z,97.05
2023-03-28T00:59:10.677Z,97.44
2023-03-28T01:01:39.200Z,97.98
2023-03-28T01:04:10.260Z,98.13
2023-03-28T01:06:42.237Z,98.52
2023-03-28T01:09:14.789Z,98.61
2023-03-28T01:11:50.849Z,98.76
2023-03-28T01:14:22.113Z,98.85
2023-03-28T01:16:52.763Z,98.89
2023-03-28T01:19:31.405Z,98.80
2023-03-28T01:22:15.701Z,98.95
2023-03-28T01:25:06.995Z,99.01
2023-03-28T01:27:41.552Z,99.22
2023-03-28T01:30:40.185Z,99.19
2023-03-28T01:33:57.537Z,99.24
2023-03-28T01:37:03.356Z,99.25
2023-03-28T01:39:50.565Z,99.17
2023-03-28T01:42:28.576Z,99.21
2023-03-28T01:45:08.329Z,99.47
2023-03-28T01:47:41.157Z,99.44
2023-03-28T01:50:14.432Z,99.24
2023-03-28T01:52:49.286Z,99.32
2023-03-28T01:55:20.169Z,99.22
2023-03-28T01:57:53.946Z,99.17
2023-03-28T02:00:29.452Z,99.22
2023-03-28T02:03:11.928Z,99.53
2023-03-28T02:06:03.306Z,99.22
2023-03-28T02:08:34.456Z,99.19
2023-03-28T02:11:18.165Z,99.22
2023-03-28T02:14:11.749Z,99.57
2023-03-28T02:17:29.293Z,99.16
2023-03-28T02:20:19.526Z,99.24
2023-03-28T02:23:19.779Z,99.52
2023-03-28T02:26:12.512Z,99.54
2023-03-28T02:29:02.937Z,99.48
2023-03-28T02:31:46.394Z,99.84
2023-03-28T02:34:16.763Z,99.64
2023-03-28T02:36:50.083Z,99.54
2023-03-28T02:39:46.776Z,99.58
2023-03-28T02:42:44.514Z,99.92
2023-03-28T02:45:41.949Z,99.66
2023-03-28T02:48:16.896Z,99.51
2023-03-28T02:50:51.057Z,99.49
2023-03-28T02:53:27.684Z,99.59
2023-03-28T02:55:59.310Z,99.62
2023-03-28T02:58:49.864Z,99.40
2023-03-28T03:01:21.246Z,99.49
2023-03-28T03:03:50.214Z,99.54
2023-03-28T03:06:19.592Z,99.69
2023-03-28T03:08:48.237Z,99.47
2023-03-28T03:11:16.735Z,99.71
2023-03-28T03:13:45.425Z,99.59
2023-03-28T03:16:13.951Z,99.83
2023-03-28T03:18:44.055Z,99.89
2023-03-28T03:21:13.121Z,100.00
2023-03-28T03:23:44.359Z,100.00
2023-03-28T03:26:15.971Z,99.88
2023-03-28T03:29:04.295Z,100.00
2023-03-28T03:31:34.183Z,99.88
2023-03-28T03:34:24.418Z,99.95
2023-03-28T03:36:56.499Z,99.67
2023-03-28T03:39:25.410Z,99.46
2023-03-28T03:41:53.760Z,99.61
2023-03-28T03:44:23.447Z,99.36
2023-03-28T03:46:53.382Z,98.98
2023-03-28T03:49:23.278Z,99.11
2023-03-28T03:51:52.269Z,98.92
2023-03-28T03:54:21.595Z,98.80
2023-03-28T03:56:50.934Z,98.62
2023-03-28T03:59:19.586Z,98.28
2023-03-28T04:01:48.705Z,97.95
2023-03-28T04:04:40.597Z,97.15
2023-03-28T04:07:17.247Z,96.83
2023-03-28T04:09:48.107Z,96.53
2023-03-28T04:12:16.570Z,96.53
2023-03-28T04:14:50.739Z,96.47
2023-03-28T04:17:45.119Z,96.32
2023-03-28T04:20:18.830Z,96.23
2023-03-28T04:23:08.602Z,95.88
2023-03-28T04:25:41.778Z,96.36
2023-03-28T04:28:16.369Z,96.26
2023-03-28T04:31:05.328Z,96.17
2023-03-28T04:33:53.966Z,95.92
2023-03-28T04:36:26.085Z,95.61
2023-03-28T04:39:03.971Z,95.14
2023-03-28T04:41:46.360Z,94.64
2023-03-28T04:44:27.433Z,94.60
2023-03-28T04:47:03.799Z,94.76
2023-03-28T04:49:33.248Z,94.57
2023-03-28T04:52:03.053Z,94.60
2023-03-28T04:54:31.615Z,94.46
2023-03-28T04:57:08.969Z,94.07
2023-03-28T04:59:50.006Z,93.43
2023-03-28T05:02:38.461Z,92.97
2023-03-28T05:05:08.821Z,93.01
2023-03-28T05:07:38.868Z,92.90
2023-03-28T05:10:12.189Z,92.92
2023-03-28T05:12:47.145Z,92.67
2023-03-28T05:15:21.565Z,92.17
2023-03-28T05:18:04.710Z,92.16
2023-03-28T05:20:37.430Z,91.11
2023-03-28T05:23:08.140Z,91.28
2023-03-28T05:25:40.350Z,90.48
2023-03-28T05:28:09.264Z,89.96
2023-03-28T05:30:47.291Z,89.87
2023-03-28T05:33:16.081Z,89.12
2023-03-28T05:35:45.942Z,88.78
2023-03-28T05:38:17.270Z,88.41
2023-03-28T05:40:52.265Z,88.31
2023-03-28T05:43:20.993Z,87.75
2023-03-28T05:45:49.905Z,87.53
2023-03-28T05:48:23.715Z,87.46
2023-03-28T05:50:52.236Z,86.66
2023-03-28T05:53:22.313Z,85.84
2023-03-28T05:55:52.620Z,86.21
2023-03-28T05:58:21.276Z,86.06
2023-03-28T06:00:49.966Z,84.85
2023-03-28T06:03:19.149Z,85.03
2023-03-28T06:05:49.427Z,83.78
2023-03-28T06:08:29.725Z,83.98
2023-03-28T06:11:02.305Z,83.44
2023-03-28T06:13:34.750Z,83.00
2023-03-28T06:16:07.512Z,82.91
2023-03-28T06:18:37.556Z,81.97
2023-03-28T06:21:08.062Z,81.00
2023-03-28T06:23:38.147Z,80.16
2023-03-28T06:26:07.013Z,79.00
2023-03-28T06:28:43.001Z,77.95
2023-03-28T06:31:21.471Z,76.55
2023-03-28T06:33:50.650Z,75.79
2023-03-28T06:36:21.849Z,75.96
2023-03-28T06:38:53.911Z,75.08
2023-03-28T06:41:25.128Z,73.65
2023-03-28T06:43:53.593Z,73.14
2023-03-28T06:46:40.651Z,71.54
2023-03-28T06:49:09.392Z,70.13
2023-03-28T06:52:01.130Z,69.56
2023-03-28T06:54:32.646Z,68.81
2023-03-28T06:57:04.784Z,68.59
2023-03-28T06:59:34.052Z,68.37
2023-03-28T07:02:05.541Z,66.22
2023-03-28T07:04:40.131Z,64.70
2023-03-28T07:07:09.954Z,64.13
2023-03-28T07:09:40.234Z,64.83
2023-03-28T07:12:12.028Z,62.86
2023-03-28T07:14:44.648Z,63.74
2023-03-28T07:17:13.186Z,61.66
2023-03-28T07:19:41.696Z,62.83
2023-03-28T07:22:15.992Z,62.47
2023-03-28T07:24:46.178Z,61.25
2023-03-28T07:27:16.882Z,61.83
2023-03-28T07:29:48.024Z,62.46
2023-03-28T07:32:19.854Z,61.75
2023-03-28T07:34:48.611Z,61.80
2023-03-28T07:37:26.058Z,62.24
2023-03-28T07:40:32.692Z,60.90
2023-03-28T07:43:02.027Z,61.37
2023-03-28T07:45:30.728Z,61.58
2023-03-28T07:48:00.007Z,61.33
2023-03-28T07:50:28.487Z,62.02
2023-03-28T07:52:58.998Z,61.20
2023-03-28T07:55:39.360Z,60.78
2023-03-28T07:58:16.955Z,60.01
2023-03-28T08:00:47.586Z,60.43
2023-03-28T08:03:43.686Z,59.84
2023-03-28T08:06:28.805Z,60.04
2023-03-28T08:09:04.761Z,59.73
2023-03-28T08:11:38.592Z,58.73
2023-03-28T08:14:09.427Z,58.78
2023-03-28T08:16:38.545Z,59.99
2023-03-28T08:19:11.382Z,59.00
2023-03-28T08:22:02.731Z,58.30
2023-03-28T08:24:38.344Z,58.07
2023-03-28T08:27:18.021Z,57.53
2023-03-28T08:29:49.236Z,57.89
2023-03-28T08:32:20.482Z,56.86
2023-03-28T08:34:49.513Z,56.80
2023-03-28T08:37:21.845Z,57.12
2023-03-28T08:39:51.671Z,57.07
2023-03-28T08:42:32.636Z,56.83
2023-03-28T08:45:13.017Z,55.68
2023-03-28T08:47:49.241Z,56.16
2023-03-28T08:50:20.156Z,56.30
2023-03-28T08:52:49.040Z,55.90
2023-03-28T08:55:26.510Z,55.55
2023-03-28T08:57:57.490Z,55.25
2023-03-28T09:00:31.393Z,54.77
2023-03-28T09:03:00.454Z,54.78
2023-03-28T09:05:37.057Z,54.06
2023-03-28T09:08:22.698Z,53.52
2023-03-28T09:10:58.389Z,52.91
2023-03-28T09:13:38.635Z,52.73
2023-03-28T09:16:16.986Z,52.19
2023-03-28T09:19:05.145Z,51.13
2023-03-28T09:21:44.916Z,51.36
2023-03-28T09:24:25.153Z,51.78
2023-03-28T09:27:17.444Z,50.09
2023-03-28T09:29:48.944Z,51.74
2023-03-28T09:32:23.916Z,51.67
2023-03-28T09:34:53.389Z,52.33
2023-03-28T09:37:33.779Z,51.85
2023-03-28T09:40:11.367Z,52.88
2023-03-28T09:42:58.202Z,53.45
2023-03-28T09:45:50.760Z,53.19
2023-03-28T09:48:51.710Z,52.18
2023-03-28T09:51:24.178Z,51.95
2023-03-28T09:53:53.771Z,50.60
2023-03-28T09:56:27.677Z,49.74
2023-03-28T09:59:03.668Z,49.26
2023-03-28T10:01:51.760Z,49.57
2023-03-28T10:04:46.544Z,49.06
2023-03-28T10:07:34.063Z,48.29
2023-03-28T10:10:21.933Z,47.83
2023-03-28T10:12:59.010Z,48.30
2023-03-28T10:15:35.045Z,48.51
2023-03-28T10:18:21.014Z,48.54
2023-03-28T10:21:04.735Z,49.24
2023-03-28T10:23:33.382Z,49.31
2023-03-28T10:26:04.217Z,49.05
2023-03-28T10:28:34.956Z,49.29
2023-03-28T10:31:05.171Z,50.50
2023-03-28T10:33:42.821Z,52.11
2023-03-28T10:36:46.021Z,50.60
2023-03-28T10:39:23.503Z,50.16
2023-03-28T10:42:11.886Z,50.06
2023-03-28T10:45:00.293Z,49.13
2023-03-28T10:47:33.056Z,48.35
2023-03-28T10:50:08.820Z,48.35
2023-03-28T10:52:44.077Z,48.22
2023-03-28T10:55:19.293Z,48.42
2023-03-28T10:58:15.759Z,47.11
2023-03-28T11:00:56.835Z,47.92
2023-03-28T11:03:41.668Z,47.50
2023-03-28T11:06:16.798Z,47.18
2023-03-28T11:08:53.089Z,47.67
2023-03-28T11:11:36.893Z,48.45
2023-03-28T11:14:19.115Z,47.94
2023-03-28T11:16:56.610Z,49.11
2023-03-28T11:20:17.482Z,48.36
2023-03-28T11:23:06.483Z,48.30
2023-03-28T11:25:59.409Z,48.11
2023-03-28T11:29:00.671Z,47.89
2023-03-28T11:31:32.203Z,48.84
2023-03-28T11:34:05.647Z,49.13
2023-03-28T11:36:39.269Z,49.22
2023-03-28T11:39:15.365Z,48.33
2023-03-28T11:41:45.384Z,48.43
2023-03-28T11:44:27.895Z,47.64
2023-03-28T11:46:59.052Z,48.14
2023-03-28T11:49:35.947Z,48.95
2023-03-28T11:52:13.304Z,47.86
2023-03-28T11:54:47.139Z,48.14
2023-03-28T11:57:21.187Z,48.47
2023-03-28T11:59:57.698Z,48.74
2023-03-28T12:02:42.770Z,48.82
2023-03-28T12:05:22.851Z,49.12
2023-03-28T12:07:55.791Z,49.42
2023-03-28T12:10:36.142Z,49.40
2023-03-28T12:13:13.315Z,49.85
2023-03-28T12:15:54.228Z,49.17
2023-03-28T12:18:29.344Z,49.76
2023-03-28T12:21:01.349Z,49.03
2023-03-28T12:23:40.691Z,48.41
2023-03-28T12:26:56.224Z,48.74
2023-03-28T12:29:31.850Z,48.55
2023-03-28T12:32:03.289Z,49.40
2023-03-28T12:34:39.296Z,50.01
2023-03-28T12:37:34.377Z,49.63
2023-03-28T12:40:20.845Z,50.23
2023-03-28T12:42:53.400Z,50.48
2023-03-28T12:45:24.625Z,50.93
2023-03-28T12:47:54.937Z,51.51
2023-03-28T12:50:29.767Z,52.77
2023-03-28T12:52:59.766Z,52.83
2023-03-28T12:55:49.330Z,51.53
2023-03-28T12:58:26.781Z,50.83
2023-03-28T13:01:17.192Z,51.02
2023-03-28T13:04:19.144Z,51.63
2023-03-28T13:07:05.741Z,51.92
2023-03-28T13:09:46.132Z,51.17
2023-03-28T13:12:30.896Z,52.53
2023-03-28T13:15:02.727Z,52.58
2023-03-28T13:17:37.518Z,52.73
2023-03-28T13:20:27.761Z,53.03
2023-03-28T13:23:00.676Z,53.06
2023-03-28T13:25:32.365Z,53.04
2023-03-28T13:28:05.748Z,53.31
2023-03-28T13:30:35.866Z,53.56
2023-03-28T13:33:14.773Z,53.19
2023-03-28T13:35:51.181Z,53.46
2023-03-28T13:38:25.170Z,53.91
2023-03-28T13:40:56.234Z,54.30
2023-03-28T13:43:29.697Z,54.41
2023-03-28T13:46:03.151Z,54.57
2023-03-28T13:48:36.020Z,55.13
2023-03-28T13:51:07.588Z,55.56
2023-03-28T13:53:47.027Z,55.37
2023-03-28T13:56:24.572Z,55.15
2023-03-28T13:58:57.896Z,55.61
2023-03-28T14:01:34.918Z,55.22
2023-03-28T14:04:03.980Z,55.06
2023-03-28T14:06:32.557Z,54.53
2023-03-28T14:09:02.953Z,54.48
2023-03-28T14:11:35.283Z,54.04
2023-03-28T14:14:09.520Z,53.70
2023-03-28T14:16:40.388Z,53.60
2023-03-28T14:19:11.280Z,53.41
2023-03-28T14:21:39.995Z,53.00
2023-03-28T14:24:09.961Z,52.46
2023-03-28T14:26:39.215Z,52.50
2023-03-28T14:29:13.395Z,52.10
2023-03-28T14:31:46.371Z,52.73
2023-03-28T14:34:25.170Z,52.53
2023-03-28T14:37:01.824Z,52.89
2023-03-28T14:39:34.515Z,53.01
2023-03-28T14:42:08.697Z,52.76
2023-03-28T14:44:38.881Z,52.65
2023-03-28T14:47:09.372Z,52.51
2023-03-28T14:49:38.782Z,52.73
2023-03-28T14:52:12.599Z,52.14
2023-03-28T14:54:46.008Z,50.71
2023-03-28T14:57:16.727Z,50.01
2023-03-28T14:59:48.194Z,49.33
2023-03-28T15:02:23.125Z,49.99
2023-03-28T15:04:53.159Z,51.45
2023-03-28T15:07:26.018Z,52.37
2023-03-28T15:10:10.370Z,53.36
2023-03-28T15:12:44.666Z,53.74
2023-03-28T15:15:19.117Z,54.74
2023-03-28T15:17:49.390Z,54.40
2023-03-28T15:20:19.564Z,55.30
2023-03-28T15:22:50.060Z,55.65
2023-03-28T15:25:18.852Z,56.48
2023-03-28T15:27:51.653Z,56.55
2023-03-28T15:30:21.534Z,56.96
2023-03-28T15:32:52.128Z,56.58
2023-03-28T15:35:27.729Z,57.14
2023-03-28T15:38:05.407Z,57.39
2023-03-28T15:40:39.947Z,57.28
2023-03-28T15:43:08.429Z,57.37
2023-03-28T15:45:43.087Z,57.88
2023-03-28T15:48:20.736Z,58.22
2023-03-28T15:50:53.085Z,58.42
2023-03-28T15:53:22.773Z,59.05
2023-03-28T15:55:51.598Z,58.24
2023-03-28T15:58:23.500Z,58.82
2023-03-28T16:00:53.117Z,59.16
2023-03-28T16:03:34.916Z,58.18
2023-03-28T16:06:26.701Z,58.40
2023-03-28T16:09:15.963Z,57.44
2023-03-28T16:11:45.877Z,58.55
2023-03-28T16:14:33.448Z,57.73
2023-03-28T16:17:26.283Z,58.41
2023-03-28T16:20:15.204Z,58.00
2023-03-28T16:22:43.968Z,57.95
2023-03-28T16:25:12.441Z,58.13
2023-03-28T16:27:42.541Z,58.60
2023-03-28T16:30:19.250Z,58.19
2023-03-28T16:32:48.606Z,59.22
2023-03-28T16:35:18.601Z,59.70
2023-03-28T16:37:47.506Z,59.27
2023-03-28T16:40:16.939Z,59.83
2023-03-28T16:42:45.753Z,58.62
2023-03-28T16:45:14.533Z,59.26
2023-03-28T16:47:43.299Z,59.49
2023-03-28T16:50:12.522Z,59.15
2023-03-28T16:52:42.819Z,59.07
2023-03-28T16:55:12.900Z,59.50
2023-03-28T16:57:42.363Z,59.50
2023-03-28T17:00:17.206Z,59.21
2023-03-28T17:02:47.204Z,59.27
2023-03-28T17:05:21.393Z,59.54
2023-03-28T17:07:51.532Z,59.36
2023-03-28T17:10:22.890Z,59.45
2023-03-28T17:12:51.566Z,59.63
2023-03-28T17:15:22.334Z,59.49
2023-03-28T17:18:07.462Z,59.27
2023-03-28T17:20:36.080Z,60.27
2023-03-28T17:23:05.802Z,60.02
2023-03-28T17:25:41.674Z,59.87
2023-03-28T17:28:19.886Z,59.87
2023-03-28T17:30:48.898Z,60.43
2023-03-28T17:33:23.073Z,60.55
2023-03-28T17:35:52.015Z,60.57
2023-03-28T17:38:24.060Z,60.06
2023-03-28T17:40:53.723Z,59.41
2023-03-28T17:43:22.227Z,59.36
2023-03-28T17:45:54.791Z,59.48
2023-03-28T17:48:23.713Z,60.49
2023-03-28T17:50:56.011Z,59.37
2023-03-28T17:53:26.073Z,60.09
2023-03-28T17:55:54.636Z,60.17
2023-03-28T17:58:23.427Z,60.44
2023-03-28T18:00:51.969Z,61.15
2023-03-28T18:03:23.099Z,61.10
2023-03-28T18:06:03.588Z,61.13
2023-03-28T18:08:33.640Z,61.51
2023-03-28T18:11:02.428Z,61.37
2023-03-28T18:13:31.103Z,61.91
2023-03-28T18:15:59.654Z,62.45
2023-03-28T18:18:28.880Z,62.32
2023-03-28T18:20:57.545Z,62.64
2023-03-28T18:23:26.384Z,63.26
2023-03-28T18:25:56.230Z,63.48
2023-03-28T18:28:24.936Z,63.64
2023-03-28T18:30:58.178Z,63.52
2023-03-28T18:33:29.972Z,64.17
2023-03-28T18:35:59.154Z,64.08
2023-03-28T18:38:27.764Z,64.70
2023-03-28T18:41:00.164Z,64.89
2023-03-28T18:43:28.695Z,65.22
2023-03-28T18:45:57.124Z,65.48
2023-03-28T18:48:26.041Z,66.10
2023-03-28T18:50:54.505Z,67.02
2023-03-28T18:53:23.690Z,67.09
2023-03-28T18:55:53.244Z,67.78
2023-03-28T18:58:26.257Z,68.27
2023-03-28T19:00:59.606Z,68.41
2023-03-28T19:03:31.844Z,68.90
2023-03-28T19:06:02.559Z,69.00
2023-03-28T19:08:31.417Z,69.52
2023-03-28T19:11:01.904Z,69.97
2023-03-28T19:13:31.876Z,70.04
2023-03-28T19:16:01.126Z,70.23
2023-03-28T19:18:33.679Z,70.20
2023-03-28T19:21:04.913Z,71.02
2023-03-28T19:23:33.682Z,71.38
2023-03-28T19:26:02.341Z,70.98
2023-03-28T19:28:34.785Z,70.89
2023-03-28T19:31:05.543Z,72.05
2023-03-28T19:33:34.812Z,72.34
2023-03-28T19:36:03.400Z,72.29
2023-03-28T19:38:35.058Z,72.46
2023-03-28T19:41:06.062Z,72.65
2023-03-28T19:43:38.009Z,72.51
2023-03-28T19:46:07.780Z,72.53
2023-03-28T19:48:37.003Z,72.42
2023-03-28T19:51:05.763Z,72.24
2023-03-28T19:53:34.123Z,72.73
2023-03-28T19:56:02.983Z,73.01
2023-03-28T19:58:35.349Z,73.26
2023-03-28T20:01:06.974Z,73.17
2023-03-28T20:03:35.700Z,73.32
2023-03-28T20:06:05.932Z,73.80
2023-03-28T20:08:35.005Z,73.71
2023-03-28T20:11:04.309Z,73.32
2023-03-28T20:13:32.948Z,73.52
2023-03-28T20:16:03.145Z,73.28
2023-03-28T20:18:33.864Z,73.63
2023-03-28T20:21:06.879Z,73.08
2023-03-28T20:23:36.069Z,73.57
2023-03-28T20:26:14.314Z,73.51
2023-03-28T20:28:43.408Z,73.60
2023-03-28T20:31:13.476Z,73.39
2023-03-28T20:33:43.432Z,73.32
2023-03-28T20:36:12.030Z,73.42
2023-03-28T20:38:40.925Z,73.50
2023-03-28T20:41:12.721Z,73.59
2023-03-28T20:43:46.550Z,73.59
2023-03-28T20:46:18.478Z,73.39
2023-03-28T20:48:52.259Z,73.87
2023-03-28T20:51:23.046Z,73.82
2023-03-28T20:53:54.909Z,73.43
2023-03-28T20:56:23.820Z,73.67
2023-03-28T20:58:53.450Z,73.68
2023-03-28T21:01:25.587Z,73.91
2023-03-28T21:04:00.219Z,73.56
2023-03-28T21:06:29.686Z,73.24
2023-03-28T21:09:00.705Z,73.06
2023-03-28T21:11:31.655Z,73.49
2023-03-28T21:14:01.133Z,73.66
2023-03-28T21:16:30.776Z,73.17
2023-03-28T21:19:02.021Z,73.35
2023-03-28T21:21:33.197Z,73.55
2023-03-28T21:24:02.546Z,73.49
2023-03-28T21:26:31.475Z,73.78
2023-03-28T21:29:00.200Z,73.98
2023-03-28T21:31:30.073Z,74.44
2023-03-28T21:34:01.541Z,74.50
2023-03-28T21:36:30.524Z,74.79
2023-03-28T21:38:58.896Z,74.34
2023-03-28T21:41:28.385Z,74.71
2023-03-28T21:43:57.142Z,74.57
2023-03-28T21:46:26.616Z,74.30
2023-03-28T21:48:55.346Z,74.61
2023-03-28T21:51:26.134Z,74.42
2023-03-28T21:53:54.594Z,74.69
2023-03-28T21:56:23.169Z,75.70
2023-03-28T21:58:52.275Z,75.54
2023-03-28T22:01:21.283Z,74.80
2023-03-28T22:03:50.021Z,75.04
2023-03-28T22:06:20.121Z,75.75
2023-03-28T22:08:52.758Z,75.44
2023-03-28T22:11:28.205Z,75.53
2023-03-28T22:14:02.783Z,76.29
2023-03-28T22:16:32.518Z,75.75
2023-03-28T22:19:01.686Z,75.49
2023-03-28T22:21:31.608Z,75.93
2023-03-28T22:24:03.755Z,75.80
2023-03-28T22:26:32.238Z,76.04
2023-03-28T22:29:00.950Z,76.14
2023-03-28T22:31:29.797Z,76.54
2023-03-28T22:33:58.480Z,76.55
2023-03-28T22:36:27.305Z,76.04
2023-03-28T22:38:57.200Z,76.24
2023-03-28T22:41:32.091Z,77.15
2023-03-28T22:44:01.026Z,77.25
2023-03-28T22:46:32.376Z,76.68
2023-03-28T22:49:00.914Z,77.21
2023-03-28T22:51:30.115Z,76.82
2023-03-28T22:54:02.013Z,77.38
2023-03-28T22:56:33.874Z,76.91
2023-03-28T22:59:02.434Z,76.88
2023-03-28T23:01:30.949Z,77.05
2023-03-28T23:03:59.572Z,77.51
2023-03-28T23:06:28.789Z,77.34
2023-03-28T23:08:58.701Z,78.09
2023-03-28T23:11:27.731Z,77.47
2023-03-28T23:13:57.493Z,77.97
2023-03-28T23:16:25.822Z,77.76
2023-03-28T23:18:54.852Z,77.81
2023-03-28T23:21:25.741Z,77.87
2023-03-28T23:23:54.685Z,77.75
2023-03-28T23:26:23.348Z,78.00
2023-03-28T23:28:51.864Z,78.29
2023-03-28T23:31:21.916Z,78.65
2023-03-28T23:33:50.928Z,78.27
2023-03-28T23:36:21.039Z,78.18
2023-03-28T23:38:50.143Z,78.14
2023-03-28T23:41:18.841Z,77.98
2023-03-28T23:43:47.464Z,78.04
2023-03-28T23:46:16.346Z,78.08
2023-03-28T23:48:46.545Z,78.03
2023-03-28T23:51:15.372Z,77.52
2023-03-28T23:53:44.056Z,78.24
2023-03-28T23:56:12.508Z,77.56
2023-03-28T23:58:41.277Z,77.94
